| time (UTC) | temp F | wind direction | speed MPH | gust MPH | rain 1hr in | rain 24hr in | rain mn in | humidity % | barometer mb |
| 20260505204210 | 53 | 0 | 0.0 | 0.0 | 0.00 | 0.40 | 0.39 | 92 | 1013.2 |
| 20260505203718 | 53 | 0 | 0.0 | 0.0 | 0.00 | 0.40 | 0.39 | 92 | 1013.1 |
| 20260505203217 | 53 | 0 | 0.0 | 0.0 | 0.00 | 0.40 | 0.39 | 92 | 1013.1 |
| 20260505202706 | 53 | 0 | 0.0 | 0.0 | 0.00 | 0.40 | 0.39 | 91 | 1013.1 |
| 20260505202210 | 53 | 0 | 0.0 | 0.0 | 0.00 | 0.40 | 0.39 | 91 | 1013.0 |
| 20260505201209 | 53 | 0 | 0.0 | 0.0 | 0.00 | 0.40 | 0.39 | 91 | 1013.0 |
| 20260505200713 | 53 | 0 | 0.0 | 0.0 | 0.00 | 0.40 | 0.39 | 91 | 1013.0 |
| 20260505200213 | 53 | 0 | 0.0 | 0.0 | 0.00 | 0.40 | 0.39 | 90 | 1012.9 |
| 20260505195709 | 53 | 0 | 0.0 | 0.0 | 0.00 | 0.40 | 0.39 | 90 | 1012.8 |
| 20260505195206 | 53 | 0 | 0.0 | 0.0 | 0.00 | 0.40 | 0.39 | 89 | 1012.7 |
| 20260505194714 | 53 | 0 | 0.0 | 0.0 | 0.00 | 0.40 | 0.39 | 89 | 1012.6 |
| 20260505194206 | 53 | 0 | 0.0 | 0.0 | 0.00 | 0.40 | 0.39 | 89 | 1012.6 |
| 20260505193708 | 53 | 0 | 0.0 | 0.0 | 0.00 | 0.40 | 0.39 | 89 | 1012.5 |
| 20260505192207 | 53 | 0 | 0.0 | 0.0 | 0.00 | 0.40 | 0.39 | 89 | 1012.4 |
| 20260505191718 | 53 | 0 | 0.0 | 0.0 | 0.00 | 0.40 | 0.39 | 89 | 1012.4 |
| 20260505190710 | 53 | 0 | 0.0 | 0.0 | 0.00 | 0.40 | 0.39 | 90 | 1012.3 |
| 20260505190212 | 53 | 0 | 0.0 | 0.0 | 0.00 | 0.40 | 0.39 | 90 | 1012.4 |
| 20260505185713 | 53 | 0 | 0.0 | 0.0 | 0.00 | 0.40 | 0.39 | 90 | 1012.4 |
| 20260505185205 | 53 | 0 | 0.0 | 0.0 | 0.00 | 0.41 | 0.39 | 90 | 1012.4 |
| 20260505184710 | 53 | 0 | 0.0 | 0.0 | 0.00 | 0.42 | 0.39 | 90 | 1012.4 |
| 20260505184210 | 53 | 0 | 0.0 | 0.0 | 0.00 | 0.43 | 0.39 | 90 | 1012.4 |
| 20260505183204 | 53 | 0 | 0.0 | 0.0 | 0.00 | 0.45 | 0.39 | 89 | 1012.4 |
| 20260505182205 | 53 | 0 | 0.0 | 0.0 | 0.00 | 0.45 | 0.39 | 90 | 1012.5 |
| 20260505181707 | 53 | 0 | 0.0 | 0.0 | 0.00 | 0.45 | 0.39 | 89 | 1012.5 |
| 20260505180719 | 53 | 0 | 0.0 | 0.0 | 0.00 | 0.48 | 0.39 | 89 | 1012.7 |
| 20260505180213 | 53 | 0 | 0.0 | 0.0 | 0.00 | 0.51 | 0.39 | 89 | 1012.7 |
| 20260505174212 | 53 | 0 | 0.0 | 8.0 | 0.02 | 0.54 | 0.39 | 88 | 1012.7 |
| 20260505173718 | 53 | 0 | 0.0 | 8.0 | 0.03 | 0.54 | 0.39 | 87 | 1012.6 |
| 20260505173209 | 53 | 226 | 1.0 | 13.0 | 0.04 | 0.55 | 0.39 | 86 | 1012.6 |
| 20260505172709 | 53 | 295 | 0.0 | 13.0 | 0.05 | 0.55 | 0.39 | 86 | 1012.5 |
| 20260505172206 | 53 | 247 | 1.0 | 13.0 | 0.06 | 0.55 | 0.39 | 86 | 1012.7 |
| 20260505171713 | 53 | 239 | 2.0 | 12.0 | 0.08 | 0.56 | 0.39 | 86 | 1012.6 |
| 20260505170710 | 53 | 260 | 5.0 | 15.0 | 0.09 | 0.56 | 0.39 | 86 | 1012.4 |
| 20260505170211 | 53 | 226 | 6.0 | 16.0 | 0.15 | 0.57 | 0.39 | 88 | 1012.5 |
| 20260505165710 | 53 | 258 | 5.0 | 17.0 | 0.29 | 0.58 | 0.39 | 88 | 1012.5 |
| 20260505165214 | 52 | 234 | 8.0 | 18.0 | 0.38 | 0.61 | 0.39 | 89 | 1012.5 |
| 20260505164705 | 52 | 241 | 9.0 | 23.0 | 0.36 | 0.64 | 0.37 | 89 | 1012.5 |
| 20260505163213 | 52 | 299 | 9.0 | 23.0 | 0.33 | 0.63 | 0.34 | 88 | 1012.0 |
| 20260505162713 | 52 | 296 | 8.0 | 23.0 | 0.33 | 0.63 | 0.34 | 88 | 1012.1 |
| 20260505162206 | 52 | 250 | 6.0 | 23.0 | 0.31 | 0.61 | 0.31 | 88 | 1012.1 |
| 20260505161729 | 52 | 247 | 9.0 | 23.0 | 0.29 | 0.59 | 0.30 | 88 | 1012.2 |
| 20260505161219 | 53 | 236 | 8.0 | 26.0 | 0.29 | 0.59 | 0.30 | 87 | 1012.3 |
| 20260505153215 | 64 | 0 | 0.0 | 0.0 | 0.00 | 0.30 | 0.01 | 64 | 1010.1 |
| 20260505152719 | 65 | 0 | 0.0 | 0.0 | 0.00 | 0.30 | 0.01 | 63 | 1010.1 |
| 20260505152213 | 65 | 0 | 0.0 | 0.0 | 0.00 | 0.30 | 0.01 | 62 | 1010.1 |
| 20260505151717 | 65 | 0 | 0.0 | 0.0 | 0.00 | 0.30 | 0.01 | 63 | 1010.1 |
| 20260505151216 | 65 | 0 | 0.0 | 0.0 | 0.00 | 0.30 | 0.01 | 63 | 1010.0 |
| 20260505150716 | 65 | 0 | 0.0 | 0.0 | 0.00 | 0.30 | 0.01 | 65 | 1009.9 |
| 20260505150215 | 65 | 0 | 0.0 | 0.0 | 0.00 | 0.30 | 0.01 | 62 | 1009.9 |
| 20260505140208 | 65 | 0 | 0.0 | 5.0 | 0.00 | 0.30 | 0.01 | 62 | 1010.1 |
| 20260505130219 | 65 | 0 | 0.0 | 0.0 | 0.00 | 0.30 | 0.01 | 60 | 1010.7 |
| 20260505124219 | 65 | 0 | 0.0 | 3.0 | 0.00 | 0.30 | 0.01 | 60 | 1010.8 |
| 20260505123707 | 64 | 352 | 0.0 | 4.0 | 0.00 | 0.30 | 0.01 | 62 | 1010.8 |
| 20260505123206 | 64 | 49 | 0.0 | 4.0 | 0.00 | 0.30 | 0.01 | 62 | 1010.9 |
| 20260505122207 | 63 | 0 | 0.0 | 6.0 | 0.00 | 0.30 | 0.01 | 65 | 1011.0 |
| 20260505121713 | 63 | 0 | 0.0 | 6.0 | 0.00 | 0.30 | 0.01 | 66 | 1011.1 |
| 20260505121205 | 63 | 293 | 1.0 | 6.0 | 0.00 | 0.30 | 0.01 | 67 | 1011.2 |
| 20260505120705 | 63 | 354 | 0.0 | 11.0 | 0.00 | 0.30 | 0.01 | 66 | 1011.2 |
| 20260505115709 | 63 | 271 | 3.0 | 7.0 | 0.00 | 0.30 | 0.01 | 66 | 1011.4 |
| 20260505115213 | 63 | 271 | 1.0 | 7.0 | 0.00 | 0.30 | 0.01 | 66 | 1011.4 |
| 20260505114711 | 64 | 0 | 0.0 | 0.0 | 0.00 | 0.30 | 0.01 | 66 | 1011.4 |
| 20260505114206 | 64 | 0 | 0.0 | 4.0 | 0.00 | 0.30 | 0.01 | 64 | 1011.5 |
| 20260505113706 | 64 | 0 | 0.0 | 6.0 | 0.00 | 0.30 | 0.01 | 62 | 1011.4 |
| 20260505113212 | 64 | 281 | 0.0 | 6.0 | 0.00 | 0.30 | 0.01 | 65 | 1011.5 |
| 20260505112718 | 63 | 327 | 1.0 | 6.0 | 0.00 | 0.30 | 0.01 | 65 | 1011.6 |
| 20260505112224 | 63 | 316 | 0.0 | 1.0 | 0.00 | 0.30 | 0.01 | 66 | 1011.6 |
| 20260505111712 | 64 | 0 | 0.0 | 2.0 | 0.00 | 0.30 | 0.01 | 64 | 1011.6 |
| 20260505111205 | 64 | 247 | 0.0 | 6.0 | 0.00 | 0.30 | 0.01 | 66 | 1011.7 |
| 20260505110706 | 64 | 255 | 0.0 | 7.0 | 0.00 | 0.30 | 0.01 | 65 | 1011.7 |
| 20260505110218 | 63 | 265 | 0.0 | 7.0 | 0.00 | 0.30 | 0.01 | 66 | 1011.9 |
| 20260505102205 | 62 | 282 | 0.0 | 4.0 | 0.00 | 0.31 | 0.01 | 69 | 1012.4 |
| 20260505101713 | 62 | 270 | 1.0 | 4.0 | 0.00 | 0.31 | 0.01 | 67 | 1012.4 |
| 20260505101212 | 62 | 0 | 0.0 | 6.0 | 0.00 | 0.31 | 0.01 | 67 | 1012.5 |
| 20260505100205 | 62 | 298 | 1.0 | 4.0 | 0.00 | 0.31 | 0.01 | 69 | 1012.6 |
| 20260505094718 | 62 | 226 | 0.0 | 0.0 | 0.00 | 0.31 | 0.01 | 68 | 1012.8 |
| 20260505094212 | 62 | 0 | 0.0 | 7.0 | 0.00 | 0.31 | 0.01 | 67 | 1012.7 |
| 20260505093707 | 62 | 0 | 0.0 | 7.0 | 0.00 | 0.31 | 0.01 | 66 | 1012.7 |
| 20260505093211 | 62 | 268 | 1.0 | 5.0 | 0.00 | 0.31 | 0.01 | 67 | 1012.7 |
| 20260505092709 | 61 | 279 | 0.0 | 5.0 | 0.00 | 0.31 | 0.01 | 70 | 1012.7 |
| 20260505092214 | 60 | 261 | 1.0 | 4.0 | 0.00 | 0.31 | 0.01 | 71 | 1012.8 |
| 20260505091713 | 60 | 0 | 0.0 | 4.0 | 0.00 | 0.31 | 0.01 | 69 | 1012.7 |
| 20260505091205 | 60 | 261 | 0.0 | 4.0 | 0.00 | 0.31 | 0.01 | 70 | 1012.7 |
| 20260505090705 | 60 | 0 | 0.0 | 6.0 | 0.00 | 0.31 | 0.01 | 73 | 1012.7 |
| 20260505090207 | 59 | 293 | 1.0 | 6.0 | 0.00 | 0.31 | 0.01 | 71 | 1012.7 |
| 20260505085708 | 59 | 232 | 2.0 | 5.0 | 0.00 | 0.31 | 0.01 | 72 | 1012.7 |
| 20260505084718 | 59 | 234 | 2.0 | 9.0 | 0.00 | 0.31 | 0.01 | 70 | 1012.7 |
| 20260505082711 | 59 | 262 | 1.0 | 10.0 | 0.00 | 0.31 | 0.01 | 72 | 1012.7 |
| 20260505081718 | 58 | 222 | 4.0 | 5.0 | 0.00 | 0.31 | 0.01 | 74 | 1012.8 |
| 20260505081219 | 58 | 299 | 0.0 | 5.0 | 0.00 | 0.31 | 0.01 | 75 | 1012.7 |
| 20260505080715 | 58 | 248 | 1.0 | 6.0 | 0.00 | 0.31 | 0.01 | 76 | 1012.7 |
| 20260505075713 | 57 | 248 | 2.0 | 8.0 | 0.00 | 0.31 | 0.01 | 78 | 1012.7 |
| 20260505075219 | 57 | 233 | 3.0 | 7.0 | 0.00 | 0.31 | 0.01 | 79 | 1012.6 |
| 20260505074716 | 57 | 237 | 3.0 | 7.0 | 0.00 | 0.31 | 0.01 | 79 | 1012.7 |
| 20260505074210 | 57 | 237 | 2.0 | 9.0 | 0.00 | 0.31 | 0.01 | 79 | 1012.7 |
| 20260505072705 | 56 | 234 | 5.0 | 9.0 | 0.00 | 0.31 | 0.01 | 81 | 1012.9 |
| 20260505072217 | 56 | 225 | 2.0 | 4.0 | 0.00 | 0.31 | 0.01 | 81 | 1012.9 |
| 20260505071719 | 56 | 246 | 0.0 | 5.0 | 0.00 | 0.31 | 0.01 | 82 | 1012.9 |
| 20260505070711 | 55 | 233 | 1.0 | 5.0 | 0.00 | 0.31 | 0.01 | 84 | 1013.0 |
| 20260505070219 | 55 | 227 | 0.0 | 0.0 | 0.00 | 0.31 | 0.01 | 85 | 1012.9 |
| 20260505065219 | 55 | 0 | 0.0 | 0.0 | 0.00 | 0.31 | 0.01 | 87 | 1013.0 |
| 20260505064214 | 54 | 0 | 0.0 | 2.0 | 0.00 | 0.31 | 0.01 | 87 | 1013.1 |
| 20260505063708 | 54 | 170 | 0.0 | 2.0 | 0.00 | 0.31 | 0.01 | 87 | 1013.0 |
| 20260505063214 | 54 | 0 | 0.0 | 4.0 | 0.00 | 0.31 | 0.01 | 87 | 1013.1 |
| 20260505062712 | 54 | 239 | 0.0 | 4.0 | 0.00 | 0.31 | 0.01 | 87 | 1013.1 |
| 20260505062217 | 54 | 261 | 2.0 | 4.0 | 0.00 | 0.31 | 0.01 | 87 | 1013.0 |
| 20260505061710 | 54 | 229 | 0.0 | 3.0 | 0.00 | 0.31 | 0.01 | 87 | 1013.0 |
| 20260505061216 | 53 | 0 | 0.0 | 4.0 | 0.00 | 0.31 | 0.01 | 87 | 1013.0 |
| 20260505060706 | 53 | 220 | 1.0 | 4.0 | 0.00 | 0.31 | 0.01 | 88 | 1013.0 |
| 20260505060208 | 53 | 177 | 1.0 | 4.0 | 0.00 | 0.31 | 0.01 | 88 | 1013.0 |
| 20260505055208 | 53 | 226 | 3.0 | 6.0 | 0.00 | 0.31 | 0.01 | 88 | 1013.0 |
| 20260505054709 | 53 | 215 | 2.0 | 6.0 | 0.00 | 0.31 | 0.01 | 88 | 1012.9 |
| 20260505053708 | 53 | 236 | 3.0 | 9.0 | 0.00 | 0.31 | 0.01 | 88 | 1012.9 |
| 20260505053210 | 53 | 234 | 5.0 | 4.0 | 0.00 | 0.31 | 0.01 | 88 | 1012.8 |
| 20260505052210 | 53 | 196 | 2.0 | 4.0 | 0.00 | 0.31 | 0.01 | 89 | 1012.8 |
| 20260505051718 | 53 | 203 | 2.0 | 3.0 | 0.00 | 0.31 | 0.01 | 90 | 1012.8 |
| 20260505051207 | 53 | 227 | 1.0 | 5.0 | 0.00 | 0.31 | 0.01 | 90 | 1012.8 |
| 20260505050706 | 53 | 196 | 2.0 | 6.0 | 0.00 | 0.31 | 0.01 | 90 | 1012.8 |
| 20260505050216 | 53 | 240 | 2.0 | 6.0 | 0.00 | 0.31 | 0.01 | 89 | 1012.8 |
| 20260505041212 | 52 | 194 | 3.0 | 5.0 | 0.00 | 0.31 | 0.01 | 92 | 1012.7 |
| 20260505040719 | 52 | 196 | 2.0 | 4.0 | 0.00 | 0.31 | 0.01 | 92 | 1012.7 |
| 20260505040216 | 52 | 194 | 2.0 | 4.0 | 0.00 | 0.31 | 0.01 | 92 | 1012.6 |
| 20260505035715 | 52 | 165 | 3.0 | 4.0 | 0.00 | 0.31 | 0.01 | 92 | 1012.6 |
| 20260505035217 | 52 | 177 | 2.0 | 4.0 | 0.01 | 0.31 | 0.01 | 92 | 1012.7 |
| 20260505034710 | 52 | 164 | 2.0 | 4.0 | 0.01 | 0.31 | 0.01 | 93 | 1012.7 |
| 20260505033718 | 52 | 174 | 1.0 | 4.0 | 0.01 | 0.31 | 0.01 | 93 | 1012.5 |
| 20260505033217 | 51 | 160 | 2.0 | 4.0 | 0.01 | 0.31 | 0.01 | 93 | 1012.5 |
| 20260505032717 | 51 | 206 | 1.0 | 4.0 | 0.01 | 0.31 | 0.01 | 93 | 1012.5 |
| 20260505032208 | 51 | 206 | 2.0 | 4.0 | 0.01 | 0.31 | 0.01 | 93 | 1012.5 |
| 20260505031717 | 51 | 222 | 1.0 | 3.0 | 0.01 | 0.31 | 0.01 | 94 | 1012.5 |
| 20260505030709 | 51 | 192 | 2.0 | 4.0 | 0.01 | 0.31 | 0.01 | 94 | 1012.5 |
| 20260505030207 | 51 | 199 | 2.0 | 4.0 | 0.01 | 0.31 | 0.01 | 94 | 1012.6 |
| 20260505025715 | 51 | 241 | 2.0 | 4.0 | 0.01 | 0.31 | 0.01 | 94 | 1012.6 |
| 20260505025206 | 51 | 230 | 2.0 | 2.0 | 0.00 | 0.30 | 0.00 | 94 | 1012.6 |
| 20260505024718 | 51 | 239 | 1.0 | 2.0 | 0.00 | 0.30 | 0.00 | 94 | 1012.6 |
| 20260505024218 | 51 | 278 | 1.0 | 2.0 | 0.00 | 0.30 | 0.00 | 94 | 1012.6 |
| 20260505023707 | 51 | 271 | 1.0 | 2.0 | 0.00 | 0.30 | 0.00 | 94 | 1012.6 |
| 20260505023215 | 51 | 205 | 1.0 | 3.0 | 0.00 | 0.30 | 0.00 | 94 | 1012.6 |
| 20260505022707 | 51 | 187 | 1.0 | 3.0 | 0.00 | 0.30 | 0.00 | 94 | 1012.6 |
| 20260505022215 | 51 | 192 | 1.0 | 4.0 | 0.00 | 0.30 | 0.00 | 94 | 1012.6 |
| 20260505021705 | 51 | 196 | 1.0 | 5.0 | 0.00 | 0.30 | 0.00 | 93 | 1012.7 |
| 20260505021207 | 51 | 188 | 2.0 | 5.0 | 0.00 | 0.30 | 0.00 | 93 | 1012.6 |
| 20260505020718 | 51 | 232 | 3.0 | 5.0 | 0.00 | 0.30 | 0.00 | 93 | 1012.7 |
| 20260505015717 | 51 | 167 | 0.0 | 3.0 | 0.00 | 0.30 | 0.00 | 93 | 1012.9 |
| 20260505015215 | 51 | 187 | 0.0 | 4.0 | 0.00 | 0.30 | 0.00 | 93 | 1012.8 |
| 20260505014705 | 51 | 180 | 2.0 | 4.0 | 0.00 | 0.30 | 0.00 | 92 | 1012.9 |
| 20260505013718 | 51 | 196 | 2.0 | 3.0 | 0.00 | 0.30 | 0.00 | 93 | 1012.8 |
| 20260505013207 | 51 | 225 | 0.0 | 4.0 | 0.00 | 0.30 | 0.00 | 93 | 1012.8 |
| 20260505012712 | 50 | 191 | 1.0 | 4.0 | 0.00 | 0.30 | 0.00 | 93 | 1012.8 |
| 20260505012211 | 51 | 210 | 2.0 | 4.0 | 0.00 | 0.30 | 0.00 | 93 | 1012.8 |
| 20260505011710 | 51 | 194 | 2.0 | 4.0 | 0.00 | 0.30 | 0.00 | 93 | 1012.8 |
| 20260505011210 | 51 | 234 | 0.0 | 4.0 | 0.00 | 0.30 | 0.00 | 93 | 1013.0 |
| 20260505010709 | 51 | 295 | 1.0 | 4.0 | 0.00 | 0.30 | 0.00 | 92 | 1012.9 |
| 20260505010206 | 51 | 213 | 0.0 | 3.0 | 0.00 | 0.30 | 0.00 | 92 | 1012.9 |
| 20260505005707 | 51 | 227 | 0.0 | 3.0 | 0.00 | 0.30 | 0.00 | 92 | 1013.0 |
| 20260505005216 | 51 | 0 | 0.0 | 1.0 | 0.00 | 0.30 | 0.00 | 92 | 1013.0 |
| 20260505004705 | 52 | 248 | 0.0 | 2.0 | 0.00 | 0.30 | 0.00 | 92 | 1013.0 |
| 20260505003710 | 52 | 274 | 0.0 | 2.0 | 0.00 | 0.30 | 0.00 | 92 | 1013.1 |
| 20260505002707 | 53 | 229 | 2.0 | 3.0 | 0.00 | 0.30 | 0.00 | 92 | 1013.3 |
| 20260505002209 | 53 | 265 | 2.0 | 3.0 | 0.00 | 0.30 | 0.00 | 92 | 1013.3 |
| 20260505001713 | 53 | 212 | 1.0 | 5.0 | 0.00 | 0.30 | 0.00 | 91 | 1013.2 |
| 20260505001216 | 53 | 223 | 2.0 | 5.0 | 0.00 | 0.30 | 0.00 | 91 | 1013.2 |
| 20260505000707 | 53 | 286 | 2.0 | 5.0 | 0.00 | 0.30 | 0.00 | 91 | 1013.2 |
| 20260505000206 | 53 | 288 | 1.0 | 2.0 | 0.00 | 0.30 | 0.00 | 91 | 1013.2 |
| 20260504235716 | 53 | 274 | 0.0 | 2.0 | 0.00 | 0.30 | 0.00 | 92 | 1013.2 |
| 20260504235219 | 53 | 60 | 0.0 | 0.0 | 0.00 | 0.30 | 0.00 | 92 | 1013.1 |
| 20260504234705 | 53 | 0 | 0.0 | 0.0 | 0.00 | 0.30 | 0.00 | 93 | 1013.1 |
| 20260504233716 | 53 | 0 | 0.0 | 0.0 | 0.00 | 0.30 | 0.00 | 93 | 1013.2 |
| 20260504233210 | 53 | 0 | 0.0 | 2.0 | 0.00 | 0.30 | 0.00 | 93 | 1013.1 |
| 20260504232710 | 53 | 0 | 0.0 | 2.0 | 0.00 | 0.30 | 0.00 | 93 | 1013.1 |
| 20260504232218 | 53 | 352 | 0.0 | 2.0 | 0.00 | 0.30 | 0.00 | 93 | 1013.1 |
| 20260504231709 | 53 | 12 | 0.0 | 2.0 | 0.00 | 0.30 | 0.00 | 93 | 1013.2 |
| 20260504231218 | 53 | 0 | 0.0 | 2.0 | 0.00 | 0.30 | 0.00 | 93 | 1013.1 |
| 20260504230715 | 53 | 225 | 0.0 | 1.0 | 0.00 | 0.30 | 0.00 | 92 | 1013.1 |
| 20260504230210 | 53 | 201 | 0.0 | 1.0 | 0.00 | 0.30 | 0.00 | 93 | 1013.2 |
| 20260504225711 | 53 | 11 | 0.0 | 2.0 | 0.00 | 0.30 | 0.00 | 93 | 1013.2 |
| 20260504225210 | 53 | 0 | 0.0 | 2.0 | 0.00 | 0.30 | 0.00 | 93 | 1013.2 |
| 20260504224212 | 53 | 0 | 0.0 | 0.0 | 0.00 | 0.30 | 0.00 | 92 | 1013.2 |
| 20260504223707 | 53 | 0 | 0.0 | 0.0 | 0.00 | 0.30 | 0.00 | 92 | 1013.0 |
| 20260504223207 | 53 | 0 | 0.0 | 1.0 | 0.01 | 0.30 | 0.00 | 92 | 1013.1 |
| 20260504221211 | 53 | 0 | 0.0 | 0.0 | 0.02 | 0.30 | 0.00 | 91 | 1013.2 |
| 20260504220715 | 54 | 0 | 0.0 | 1.0 | 0.02 | 0.30 | 0.00 | 91 | 1013.2 |
| 20260504220209 | 54 | 341 | 0.0 | 2.0 | 0.02 | 0.30 | 0.30 | 90 | 1013.3 |
| 20260504215205 | 54 | 355 | 1.0 | 0.0 | 0.02 | 0.30 | 0.30 | 89 | 1013.4 |
| 20260504214234 | 54 | 0 | 0.0 | 5.0 | 0.02 | 0.30 | 0.30 | 88 | 1013.6 |
| 20260504213709 | 54 | 233 | 1.0 | 5.0 | 0.01 | 0.29 | 0.29 | 87 | 1013.7 |
| 20260504213211 | 54 | 215 | 2.0 | 5.0 | 0.01 | 0.29 | 0.29 | 87 | 1013.7 |
| 20260504212706 | 54 | 185 | 2.0 | 3.0 | 0.01 | 0.29 | 0.29 | 87 | 1013.7 |
| 20260504212208 | 54 | 306 | 1.0 | 6.0 | 0.01 | 0.29 | 0.29 | 86 | 1013.7 |
| 20260504211717 | 54 | 215 | 0.0 | 8.0 | 0.00 | 0.28 | 0.28 | 86 | 1013.7 |
| 20260504211216 | 54 | 227 | 2.0 | 10.0 | 0.00 | 0.28 | 0.28 | 86 | 1013.6 |
| 20260504210712 | 54 | 213 | 5.0 | 10.0 | 0.00 | 0.28 | 0.28 | 86 | 1013.6 |
| 20260504210225 | 55 | 216 | 5.0 | 8.0 | 0.00 | 0.28 | 0.28 | 85 | 1013.7 |
| 20260504205713 | 55 | 233 | 4.0 | 6.0 | 0.00 | 0.28 | 0.28 | 85 | 1013.7 |
| 20260504205205 | 55 | 212 | 3.0 | 7.0 | 0.00 | 0.28 | 0.28 | 86 | 1013.7 |
| 20260504204715 | 55 | 255 | 3.0 | 8.0 | 0.00 | 0.28 | 0.28 | 86 | 1013.6 |